Time;durP1;ratioP1;P1;durP2;ratioP2;P2;SDS_P1;SDS_P2;PMS_P1;PMS_P2;Temp;Humidity;BMP_temperature;BMP_pressure;BME280_temperature;BME280_humidity;BME280_pressure;Samples;Min_cycle;Max_cycle;Signal;HPM_P1;HPM_P2
2023/05/22 00:04:36;;;;;;;14.65;7.85;;;;;;;;;;10335342;28;20670;-73
2023/05/22 00:09:37;;;;;;;14.23;7.65;;;;;;;;;;10335029;28;20034;-75
2023/05/22 00:14:37;;;;;;;14.27;8.05;;;;;;;;;;10335633;28;20041;-73
2023/05/22 00:19:37;;;;;;;16.52;9.30;;;;;;;;;;10334540;28;20216;-75
2023/05/22 00:24:37;;;;;;;13.83;8.27;;;;;;;;;;10334681;28;20046;-75
2023/05/22 00:29:38;;;;;;;15.50;8.53;;;;;;;;;;10334994;28;20058;-75
2023/05/22 00:34:38;;;;;;;14.10;7.67;;;;;;;;;;10333144;28;20470;-73
2023/05/22 00:39:38;;;;;;;13.82;8.38;;;;;;;;;;10333018;28;20316;-74
2023/05/22 00:44:38;;;;;;;21.60;9.20;;;;;;;;;;10334012;28;20026;-74
2023/05/22 00:49:39;;;;;;;13.82;8.13;;;;;;;;;;10333840;28;20072;-75
2023/05/22 00:54:40;;;;;;;21.70;8.18;;;;;;;;;;10333354;28;20359;-75
2023/05/22 00:59:40;;;;;;;16.13;9.90;;;;;;;;;;10334054;28;20026;-75
2023/05/22 01:04:49;;;;;;;18.20;8.48;;;;;;;;;;10334016;28;20022;-75
2023/05/22 01:09:51;;;;;;;15.43;8.88;;;;;;;;;;10333855;28;20064;-74
2023/05/22 01:14:58;;;;;;;12.63;8.00;;;;;;;;;;10332520;28;20022;-73
2023/05/22 01:20:05;;;;;;;16.43;7.80;;;;;;;;;;10333434;28;20224;-73
2023/05/22 01:25:10;;;;;;;17.02;8.20;;;;;;;;;;10333591;28;20266;-73
2023/05/22 01:30:14;;;;;;;13.00;7.95;;;;;;;;;;10315761;28;20045;-73
2023/05/22 01:35:17;;;;;;;13.57;7.30;;;;;;;;;;10331890;28;20335;-74
2023/05/22 01:40:18;;;;;;;15.15;8.02;;;;;;;;;;10333123;28;20208;-73
2023/05/22 01:45:20;;;;;;;16.35;8.95;;;;;;;;;;10333089;28;20038;-74
2023/05/22 01:50:20;;;;;;;12.95;8.60;;;;;;;;;;10339942;28;20066;-73
2023/05/22 01:55:26;;;;;;;12.77;9.00;;;;;;;;;;10340808;28;20312;-74
2023/05/22 02:00:27;;;;;;;14.80;9.00;;;;;;;;;;10340697;28;20098;-74
2023/05/22 02:05:28;;;;;;;19.55;10.13;;;;;;;;;;10340365;28;20363;-74
2023/05/22 02:10:29;;;;;;;22.17;9.80;;;;;;;;;;10340091;28;20046;-74
2023/05/22 02:15:29;;;;;;;18.80;10.52;;;;;;;;;;10338663;28;20320;-73
2023/05/22 02:20:30;;;;;;;19.98;10.93;;;;;;;;;;10344344;28;20232;-74
2023/05/22 02:25:30;;;;;;;16.58;9.52;;;;;;;;;;10340508;28;20054;-74
2023/05/22 02:30:30;;;;;;;20.40;11.45;;;;;;;;;;10338927;28;20057;-74
2023/05/22 02:35:31;;;;;;;20.03;10.73;;;;;;;;;;10339463;28;20339;-73
2023/05/22 02:40:31;;;;;;;18.20;11.13;;;;;;;;;;10339142;28;20630;-73
2023/05/22 02:45:31;;;;;;;19.08;10.85;;;;;;;;;;10338952;28;20110;-74
2023/05/22 02:50:32;;;;;;;18.48;10.68;;;;;;;;;;10338670;28;20332;-74
2023/05/22 02:55:32;;;;;;;19.25;10.95;;;;;;;;;;10338413;28;20026;-74
2023/05/22 03:00:32;;;;;;;21.40;10.88;;;;;;;;;;10338447;28;20034;-74
2023/05/22 03:05:32;;;;;;;18.95;11.18;;;;;;;;;;10337948;28;20022;-75
2023/05/22 03:10:33;;;;;;;21.88;11.90;;;;;;;;;;10320469;28;20053;-73
2023/05/22 03:15:33;;;;;;;20.88;11.65;;;;;;;;;;10337995;28;20080;-74
2023/05/22 03:20:33;;;;;;;25.88;11.55;;;;;;;;;;10336979;28;20064;-74
2023/05/22 03:25:33;;;;;;;27.00;10.77;;;;;;;;;;10336646;28;20332;-74
2023/05/22 03:30:34;;;;;;;25.70;12.05;;;;;;;;;;10335697;28;20034;-73
2023/05/22 03:35:35;;;;;;;21.43;11.13;;;;;;;;;;10336191;28;20066;-75
2023/05/22 03:40:35;;;;;;;23.15;12.70;;;;;;;;;;10336943;28;20356;-74
2023/05/22 03:45:35;;;;;;;31.38;11.73;;;;;;;;;;10336971;28;20277;-75
2023/05/22 03:50:35;;;;;;;28.97;12.60;;;;;;;;;;10319189;28;20030;-75
2023/05/22 03:55:36;;;;;;;28.38;12.55;;;;;;;;;;10335664;28;20030;-75
2023/05/22 04:00:37;;;;;;;23.50;12.07;;;;;;;;;;10336354;28;20397;-75
2023/05/22 04:05:38;;;;;;;25.13;12.35;;;;;;;;;;10336216;28;20129;-74
2023/05/22 04:10:38;;;;;;;21.63;11.55;;;;;;;;;;10334805;28;20200;-74
2023/05/22 04:15:40;;;;;;;24.87;11.00;;;;;;;;;;10335501;28;20301;-72
2023/05/22 04:20:41;;;;;;;30.55;13.02;;;;;;;;;;10335134;28;20073;-72
2023/05/22 04:25:41;;;;;;;35.30;13.35;;;;;;;;;;10332933;28;20030;-73
2023/05/22 04:30:42;;;;;;;29.53;12.70;;;;;;;;;;10333358;28;20026;-74
2023/05/22 04:35:43;;;;;;;20.42;10.00;;;;;;;;;;10332843;28;20862;-73
2023/05/22 04:40:43;;;;;;;29.17;10.17;;;;;;;;;;10332424;28;20038;-74
2023/05/22 04:45:44;;;;;;;12.97;8.80;;;;;;;;;;10332381;28;20030;-74
2023/05/22 04:50:45;;;;;;;15.38;8.38;;;;;;;;;;10334205;28;20117;-75
2023/05/22 04:55:46;;;;;;;18.05;8.40;;;;;;;;;;10334311;28;20042;-74
2023/05/22 05:00:46;;;;;;;16.33;8.68;;;;;;;;;;10332907;28;20317;-75
2023/05/22 05:05:46;;;;;;;19.98;8.50;;;;;;;;;;10333251;28;20301;-74
2023/05/22 05:10:46;;;;;;;15.93;7.50;;;;;;;;;;10316404;28;20084;-73
2023/05/22 05:15:47;;;;;;;21.13;8.05;;;;;;;;;;10333588;28;20040;-73
2023/05/22 05:20:47;;;;;;;19.17;6.93;;;;;;;;;;10333443;28;20102;-73
2023/05/22 05:25:47;;;;;;;13.38;6.57;;;;;;;;;;10341876;28;20219;-73
2023/05/22 05:30:48;;;;;;;24.08;7.53;;;;;;;;;;10341356;28;20380;-75
2023/05/22 05:35:51;;;;;;;12.73;6.50;;;;;;;;;;10341376;28;20365;-74
2023/05/22 05:40:51;;;;;;;11.93;5.88;;;;;;;;;;10340764;28;20428;-74
2023/05/22 05:45:51;;;;;;;12.73;3.90;;;;;;;;;;10340254;28;20038;-74
2023/05/22 05:50:52;;;;;;;8.27;3.83;;;;;;;;;;10340537;28;20030;-73
2023/05/22 05:55:52;;;;;;;8.32;3.45;;;;;;;;;;10340887;28;20532;-74
2023/05/22 06:00:52;;;;;;;9.40;3.15;;;;;;;;;;10340249;28;20046;-74
2023/05/22 06:05:53;;;;;;;6.47;3.27;;;;;;;;;;10340682;28;20034;-73
2023/05/22 06:10:53;;;;;;;8.20;3.07;;;;;;;;;;10340345;28;20053;-73
2023/05/22 06:15:53;;;;;;;6.25;2.83;;;;;;;;;;10340252;28;20225;-73
2023/05/22 06:20:55;;;;;;;7.07;3.00;;;;;;;;;;10338158;28;20037;-72
2023/05/22 06:25:56;;;;;;;11.38;4.10;;;;;;;;;;10339798;28;20379;-73
2023/05/22 06:30:56;;;;;;;11.40;2.77;;;;;;;;;;10339740;28;20137;-73
2023/05/22 06:35:57;;;;;;;4.22;2.60;;;;;;;;;;10338299;28;20026;-73
2023/05/22 06:40:57;;;;;;;6.95;2.70;;;;;;;;;;10339140;28;20138;-74
2023/05/22 06:45:57;;;;;;;11.20;2.60;;;;;;;;;;10339168;28;20114;-74
2023/05/22 06:50:58;;;;;;;11.97;3.37;;;;;;;;;;10338249;28;20038;-74
2023/05/22 06:55:58;;;;;;;11.88;2.45;;;;;;;;;;10338215;28;20260;-73
2023/05/22 07:00:59;;;;;;;10.27;2.35;;;;;;;;;;10338437;28;20038;-73
2023/05/22 07:06:00;;;;;;;11.18;4.38;;;;;;;;;;10337972;28;20050;-74
2023/05/22 07:11:01;;;;;;;8.48;3.20;;;;;;;;;;10337888;28;20034;-73
2023/05/22 07:16:01;;;;;;;9.43;3.13;;;;;;;;;;10338145;28;20042;-73
2023/05/22 07:21:01;;;;;;;6.25;3.97;;;;;;;;;;10337277;28;20030;-73
2023/05/22 07:26:02;;;;;;;7.60;3.58;;;;;;;;;;10337181;28;20034;-74
2023/05/22 07:31:02;;;;;;;12.85;3.70;;;;;;;;;;10337460;28;20034;-73
2023/05/22 07:36:03;;;;;;;11.30;4.15;;;;;;;;;;10336932;28;20120;-73
2023/05/22 07:41:04;;;;;;;15.40;4.80;;;;;;;;;;10334914;28;20034;-74
2023/05/22 07:46:08;;;;;;;14.27;4.18;;;;;;;;;;10335615;28;20094;-73
2023/05/22 07:51:08;;;;;;;14.73;4.18;;;;;;;;;;10336923;28;20239;-73
2023/05/22 07:56:08;;;;;;;14.75;4.05;;;;;;;;;;10336183;28;20077;-73
2023/05/22 08:01:09;;;;;;;9.48;4.40;;;;;;;;;;10335893;28;20073;-74
2023/05/22 08:06:09;;;;;;;6.20;2.90;;;;;;;;;;10318672;28;20073;-73
2023/05/22 08:11:09;;;;;;;12.73;2.80;;;;;;;;;;10335508;28;20526;-74
2023/05/22 08:16:10;;;;;;;11.65;2.80;;;;;;;;;;10335430;28;20034;-74
2023/05/22 08:21:10;;;;;;;6.32;2.97;;;;;;;;;;10334916;28;20042;-74
2023/05/22 08:26:10;;;;;;;5.83;2.00;;;;;;;;;;10335078;28;20331;-74
2023/05/22 08:31:11;;;;;;;9.67;2.70;;;;;;;;;;10334648;28;20085;-73
2023/05/22 08:36:12;;;;;;;9.02;2.35;;;;;;;;;;10334462;28;20085;-74
2023/05/22 08:41:12;;;;;;;3.88;1.92;;;;;;;;;;10333793;28;20042;-74
2023/05/22 08:46:15;;;;;;;4.37;2.20;;;;;;;;;;10334599;28;20022;-74
2023/05/22 08:51:17;;;;;;;7.75;2.53;;;;;;;;;;10332957;28;20276;-73
2023/05/22 08:56:17;;;;;;;7.07;2.50;;;;;;;;;;10333460;28;20026;-74
2023/05/22 09:01:18;;;;;;;5.00;1.60;;;;;;;;;;10334075;28;20022;-73
2023/05/22 09:06:18;;;;;;;9.00;1.43;;;;;;;;;;10333792;28;20307;-73
2023/05/22 09:11:18;;;;;;;4.93;1.53;;;;;;;;;;10332920;28;20100;-72
2023/05/22 09:16:19;;;;;;;6.30;2.30;;;;;;;;;;10333181;28;20292;-75
2023/05/22 09:21:20;;;;;;;6.27;1.80;;;;;;;;;;10333395;28;20054;-73
2023/05/22 09:26:21;;;;;;;5.22;1.98;;;;;;;;;;10333246;28;20236;-73
2023/05/22 09:31:21;;;;;;;6.18;2.00;;;;;;;;;;10331814;28;20069;-73
2023/05/22 09:36:28;;;;;;;4.77;1.83;;;;;;;;;;10333729;28;20463;-74
2023/05/22 09:41:31;;;;;;;;;;;;;;;;;;10333353;28;20030;-74
2023/05/22 09:46:37;;;;;;;8.27;2.15;;;;;;;;;;10333349;28;20349;-74
2023/05/22 09:51:43;;;;;;;6.63;1.90;;;;;;;;;;10332966;28;20097;-74
2023/05/22 09:56:43;;;;;;;5.18;2.15;;;;;;;;;;10333284;28;20030;-74
2023/05/22 10:01:44;;;;;;;6.95;2.78;;;;;;;;;;10332142;28;20211;-75
2023/05/22 10:06:48;;;;;;;10.30;2.65;;;;;;;;;;10333362;28;20032;-74
2023/05/22 10:11:51;;;;;;;6.47;2.72;;;;;;;;;;10340323;28;20045;-74
2023/05/22 10:16:52;;;;;;;8.20;3.28;;;;;;;;;;10339867;28;20127;-74
2023/05/22 10:21:53;;;;;;;10.55;3.65;;;;;;;;;;10340074;28;20221;-73
2023/05/22 10:26:53;;;;;;;9.15;3.20;;;;;;;;;;10339725;28;20064;-73
2023/05/22 10:32:00;;;;;;;11.05;4.10;;;;;;;;;;10339304;28;20027;-73
2023/05/22 10:37:21;;;;;;;17.67;4.07;;;;;;;;;;10321471;28;20267;-75
2023/05/22 10:42:21;;;;;;;15.20;4.30;;;;;;;;;;10324952;28;20276;-74
2023/05/22 10:47:21;;;;;;;7.43;4.57;;;;;;;;;;10338967;28;20037;-73
2023/05/22 10:52:21;;;;;;;13.77;5.50;;;;;;;;;;10337062;28;20034;-74
2023/05/22 10:57:23;;;;;;;13.35;5.22;;;;;;;;;;10338621;28;20042;-74
2023/05/22 11:02:30;;;;;;;9.82;5.00;;;;;;;;;;10341372;28;20037;-73
2023/05/22 11:07:38;;;;;;;8.07;4.40;;;;;;;;;;10337046;28;20137;-73
2023/05/22 11:12:40;;;;;;;16.15;4.97;;;;;;;;;;10321138;28;20225;-73
2023/05/22 11:17:41;;;;;;;5.85;3.75;;;;;;;;;;10337539;28;20042;-74
2023/05/22 11:22:43;;;;;;;6.28;3.10;;;;;;;;;;10337518;28;20104;-74
2023/05/22 11:27:44;;;;;;;7.80;3.75;;;;;;;;;;10337331;28;20268;-74
2023/05/22 11:32:45;;;;;;;9.18;3.08;;;;;;;;;;10336103;28;20037;-73
2023/05/22 11:37:45;;;;;;;4.97;2.45;;;;;;;;;;10336202;28;20251;-73
2023/05/22 11:42:46;;;;;;;5.07;3.05;;;;;;;;;;10335012;28;20030;-75
2023/05/22 11:47:47;;;;;;;6.30;3.85;;;;;;;;;;10334769;28;20355;-73
2023/05/22 11:52:48;;;;;;;3.42;2.75;;;;;;;;;;10335146;28;20034;-73
2023/05/22 11:57:49;;;;;;;7.22;3.05;;;;;;;;;;10334727;28;20312;-73
2023/05/22 12:02:49;;;;;;;4.90;2.63;;;;;;;;;;10334139;28;20054;-74
2023/05/22 12:07:49;;;;;;;7.72;3.83;;;;;;;;;;10334342;28;20045;-73
2023/05/22 12:12:50;;;;;;;7.87;3.97;;;;;;;;;;10334738;28;20038;-72
2023/05/22 12:17:53;;;;;;;9.10;4.20;;;;;;;;;;10333732;28;20030;-72
2023/05/22 12:22:54;;;;;;;8.10;4.22;;;;;;;;;;10357620;28;20259;-77
2023/05/22 12:27:55;;;;;;;7.93;3.80;;;;;;;;;;10374796;28;20244;-76
2023/05/22 12:32:55;;;;;;;8.82;3.95;;;;;;;;;;10359820;28;20069;-77
2023/05/22 12:37:56;;;;;;;12.27;4.47;;;;;;;;;;10374329;28;20048;-77
2023/05/22 12:42:57;;;;;;;5.07;3.50;;;;;;;;;;10373954;28;20029;-76
2023/05/22 12:47:57;;;;;;;7.80;4.32;;;;;;;;;;10373263;28;20041;-77
2023/05/22 12:52:57;;;;;;;7.38;3.95;;;;;;;;;;10373748;28;20025;-77
2023/05/22 12:57:58;;;;;;;7.10;2.90;;;;;;;;;;10373529;28;20151;-77
2023/05/22 13:02:58;;;;;;;7.27;3.03;;;;;;;;;;10373205;28;20084;-77
2023/05/22 13:07:58;;;;;;;6.65;3.33;;;;;;;;;;10373225;28;20030;-76
2023/05/22 13:12:58;;;;;;;8.13;3.42;;;;;;;;;;10373602;28;20037;-75
2023/05/22 13:17:59;;;;;;;8.73;3.10;;;;;;;;;;10372566;28;20502;-78
2023/05/22 13:22:59;;;;;;;5.80;3.22;;;;;;;;;;10337065;28;20053;-76
2023/05/22 13:28:00;;;;;;;6.70;3.20;;;;;;;;;;10332901;28;20368;-76
2023/05/22 13:33:00;;;;;;;7.43;3.10;;;;;;;;;;10331778;28;20362;-76
2023/05/22 13:38:00;;;;;;;4.28;2.70;;;;;;;;;;10332174;28;20069;-75
2023/05/22 13:43:00;;;;;;;13.98;3.00;;;;;;;;;;10334529;28;20220;-75
2023/05/22 13:48:01;;;;;;;4.60;2.92;;;;;;;;;;10322425;28;20045;-75
2023/05/22 13:53:01;;;;;;;4.05;2.83;;;;;;;;;;10340615;28;20031;-75
2023/05/22 13:58:02;;;;;;;4.88;2.70;;;;;;;;;;10341458;28;20100;-77
2023/05/22 14:03:03;;;;;;;5.30;2.92;;;;;;;;;;10340403;28;20374;-77
2023/05/22 14:08:03;;;;;;;7.07;3.83;;;;;;;;;;10340300;28;20069;-77
2023/05/22 14:13:03;;;;;;;14.77;3.67;;;;;;;;;;10341612;28;20128;-76
2023/05/22 14:18:04;;;;;;;7.50;3.00;;;;;;;;;;10340188;28;20038;-76
2023/05/22 14:23:04;;;;;;;7.30;3.65;;;;;;;;;;10339011;28;20069;-77
2023/05/22 14:28:04;;;;;;;8.10;3.40;;;;;;;;;;10339852;28;20125;-76
2023/05/22 14:33:05;;;;;;;12.70;3.70;;;;;;;;;;10339821;28;20022;-77
2023/05/22 14:38:05;;;;;;;5.25;3.33;;;;;;;;;;10339608;28;20042;-76
2023/05/22 14:43:05;;;;;;;4.40;3.20;;;;;;;;;;10337664;28;20401;-76
2023/05/22 14:48:07;;;;;;;6.53;3.28;;;;;;;;;;10339241;28;20028;-77
2023/05/22 14:53:07;;;;;;;7.63;3.22;;;;;;;;;;10338397;28;20034;-77
2023/05/22 14:58:08;;;;;;;9.70;3.50;;;;;;;;;;10338587;28;20030;-75
2023/05/22 15:03:08;;;;;;;6.93;3.57;;;;;;;;;;10336715;28;20019;-76
2023/05/22 15:08:08;;;;;;;6.97;3.55;;;;;;;;;;10338169;28;20018;-76
2023/05/22 15:13:09;;;;;;;8.30;3.90;;;;;;;;;;10337988;28;20034;-76
2023/05/22 15:18:10;;;;;;;7.13;3.72;;;;;;;;;;10320677;28;20030;-77
2023/05/22 15:23:11;;;;;;;12.32;3.92;;;;;;;;;;10337616;28;20061;-77
2023/05/22 15:28:11;;;;;;;7.30;4.35;;;;;;;;;;10338033;28;20545;-76
2023/05/22 15:33:12;;;;;;;8.95;4.63;;;;;;;;;;10335599;28;20060;-76
2023/05/22 15:38:14;;;;;;;7.80;4.90;;;;;;;;;;10335195;28;20267;-77
2023/05/22 15:43:14;;;;;;;9.07;4.47;;;;;;;;;;10335476;28;20057;-76
2023/05/22 15:48:15;;;;;;;7.93;5.03;;;;;;;;;;10334196;28;21751;-76
2023/05/22 15:53:16;;;;;;;7.68;5.03;;;;;;;;;;10334787;28;20327;-76
2023/05/22 15:58:16;;;;;;;6.40;3.77;;;;;;;;;;10334400;28;20085;-76
2023/05/22 16:03:16;;;;;;;9.27;3.83;;;;;;;;;;10333270;28;20344;-76
2023/05/22 16:08:17;;;;;;;4.00;3.15;;;;;;;;;;10311023;28;20034;-76
2023/05/22 16:13:17;;;;;;;6.07;3.70;;;;;;;;;;10308475;28;20101;-76
2023/05/22 16:18:20;;;;;;;9.13;4.78;;;;;;;;;;10309469;28;20053;-75
2023/05/22 16:23:20;;;;;;;16.27;5.32;;;;;;;;;;10306920;28;20022;-77
2023/05/22 16:28:20;;;;;;;11.77;4.07;;;;;;;;;;10306700;28;20366;-75
2023/05/22 16:33:21;;;;;;;8.27;3.53;;;;;;;;;;10306551;28;20197;-76
2023/05/22 16:38:21;;;;;;;6.32;3.70;;;;;;;;;;10309982;28;20137;-74
2023/05/22 16:43:21;;;;;;;5.10;3.42;;;;;;;;;;10305423;28;20276;-74
2023/05/22 16:48:21;;;;;;;6.53;3.53;;;;;;;;;;10308603;28;20085;-75
2023/05/22 16:53:22;;;;;;;4.30;3.03;;;;;;;;;;10312654;28;20324;-74
2023/05/22 16:58:22;;;;;;;7.78;3.28;;;;;;;;;;10309337;28;20059;-75
2023/05/22 17:03:23;;;;;;;4.90;2.60;;;;;;;;;;10306837;28;20324;-75
2023/05/22 17:08:26;;;;;;;3.92;3.33;;;;;;;;;;10307219;28;20085;-74
2023/05/22 17:13:27;;;;;;;4.72;3.25;;;;;;;;;;10311361;28;20366;-74
2023/05/22 17:18:27;;;;;;;7.82;4.07;;;;;;;;;;10305407;28;20132;-73
2023/05/22 17:23:28;;;;;;;5.50;3.58;;;;;;;;;;10301795;28;20034;-73
2023/05/22 17:28:30;;;;;;;6.47;3.58;;;;;;;;;;10309484;28;20030;-73
2023/05/22 17:33:30;;;;;;;7.45;3.85;;;;;;;;;;10301945;28;20038;-72
2023/05/22 17:38:31;;;;;;;5.20;3.65;;;;;;;;;;10307421;28;20303;-72
2023/05/22 17:43:33;;;;;;;8.35;3.80;;;;;;;;;;10313293;28;20216;-72
2023/05/22 17:48:34;;;;;;;11.63;4.07;;;;;;;;;;10295267;28;20034;-73
2023/05/22 17:53:34;;;;;;;5.75;3.63;;;;;;;;;;10305575;28;20030;-74
2023/05/22 17:58:34;;;;;;;9.35;4.68;;;;;;;;;;10308897;28;20030;-72
2023/05/22 18:03:34;;;;;;;7.75;4.32;;;;;;;;;;10317448;28;20026;-78
2023/05/22 18:08:35;;;;;;;6.60;3.50;;;;;;;;;;10308238;28;20035;-75
2023/05/22 18:13:36;;;;;;;14.13;7.78;;;;;;;;;;10315735;28;20264;-74
2023/05/22 18:18:37;;;;;;;7.25;4.38;;;;;;;;;;10306799;28;20082;-72
2023/05/22 18:23:37;;;;;;;5.93;4.30;;;;;;;;;;10313386;28;20121;-72
2023/05/22 18:28:37;;;;;;;10.98;5.10;;;;;;;;;;10304148;28;20046;-73
2023/05/22 18:33:38;;;;;;;5.57;4.18;;;;;;;;;;10311886;28;20041;-72
2023/05/22 18:38:38;;;;;;;5.65;3.58;;;;;;;;;;10310392;28;20022;-73
2023/05/22 18:43:39;;;;;;;4.90;3.77;;;;;;;;;;10312205;28;20224;-73
2023/05/22 18:48:39;;;;;;;7.72;3.35;;;;;;;;;;10318145;28;20044;-73
2023/05/22 18:53:40;;;;;;;4.60;3.43;;;;;;;;;;10314368;28;20038;-75
2023/05/22 18:58:40;;;;;;;5.88;3.33;;;;;;;;;;10311430;28;20034;-75
2023/05/22 19:03:40;;;;;;;6.23;3.77;;;;;;;;;;10322724;28;20026;-75
2023/05/22 19:08:40;;;;;;;5.40;4.03;;;;;;;;;;10314878;28;20335;-74
2023/05/22 19:13:41;;;;;;;6.68;4.47;;;;;;;;;;10319285;28;20038;-73
2023/05/22 19:18:41;;;;;;;4.45;3.50;;;;;;;;;;10315386;28;20097;-74
2023/05/22 19:23:41;;;;;;;4.65;3.00;;;;;;;;;;10317255;28;20043;-74
2023/05/22 19:28:42;;;;;;;5.65;3.10;;;;;;;;;;10319428;28;20462;-78
2023/05/22 19:33:42;;;;;;;4.57;3.05;;;;;;;;;;10313627;28;20315;-71
2023/05/22 19:38:42;;;;;;;5.03;3.30;;;;;;;;;;10315115;28;20165;-72
2023/05/22 19:43:43;;;;;;;7.38;3.50;;;;;;;;;;10315015;28;20030;-73
2023/05/22 19:48:43;;;;;;;4.53;3.42;;;;;;;;;;10316028;28;20034;-73
2023/05/22 19:53:44;;;;;;;5.57;2.35;;;;;;;;;;10313637;28;20098;-72
2023/05/22 19:58:44;;;;;;;5.10;2.83;;;;;;;;;;10315064;28;20476;-71
2023/05/22 20:03:45;;;;;;;3.90;2.58;;;;;;;;;;10308869;28;20043;-72
2023/05/22 20:08:46;;;;;;;3.70;2.42;;;;;;;;;;10319549;28;20328;-77
2023/05/22 20:13:46;;;;;;;3.67;2.65;;;;;;;;;;10314175;28;20335;-71
2023/05/22 20:18:47;;;;;;;3.70;2.50;;;;;;;;;;10315827;28;20038;-71
2023/05/22 20:23:47;;;;;;;4.10;2.75;;;;;;;;;;10305645;28;20042;-73
2023/05/22 20:28:48;;;;;;;3.28;2.53;;;;;;;;;;10312317;28;20042;-78
2023/05/22 20:33:48;;;;;;;3.50;2.40;;;;;;;;;;10319838;28;20038;-74
2023/05/22 20:38:48;;;;;;;4.28;2.08;;;;;;;;;;10304200;28;20038;-74
2023/05/22 20:43:49;;;;;;;4.30;2.85;;;;;;;;;;10307441;28;20037;-71
2023/05/22 20:48:52;;;;;;;2.90;2.20;;;;;;;;;;10316117;28;20282;-74
2023/05/22 20:53:53;;;;;;;3.85;2.95;;;;;;;;;;10306914;28;20030;-74
2023/05/22 20:58:56;;;;;;;3.83;2.77;;;;;;;;;;10313415;28;20088;-75
2023/05/22 21:03:56;;;;;;;5.75;3.53;;;;;;;;;;10308269;28;20043;-74
2023/05/22 21:09:00;;;;;;;6.32;4.38;;;;;;;;;;10312249;28;20289;-75
2023/05/22 21:14:00;;;;;;;6.15;4.45;;;;;;;;;;10313643;28;20232;-74
2023/05/22 21:19:01;;;;;;;10.07;5.72;;;;;;;;;;10307755;28;20046;-72
2023/05/22 21:24:01;;;;;;;9.55;5.60;;;;;;;;;;10354441;28;20324;-72
2023/05/22 21:29:02;;;;;;;10.33;5.60;;;;;;;;;;10342180;28;20144;-74
2023/05/22 21:34:02;;;;;;;9.38;5.18;;;;;;;;;;10364477;28;20307;-72
2023/05/22 21:39:02;;;;;;;9.82;6.03;;;;;;;;;;10373312;28;20069;-73
2023/05/22 21:44:03;;;;;;;6.18;4.53;;;;;;;;;;10373444;28;20045;-72
2023/05/22 21:49:04;;;;;;;8.70;5.27;;;;;;;;;;10355540;28;20076;-73
2023/05/22 21:54:05;;;;;;;8.13;4.28;;;;;;;;;;10373175;28;20053;-73
2023/05/22 21:59:05;;;;;;;5.15;3.70;;;;;;;;;;10373302;28;20041;-73
2023/05/22 22:04:05;;;;;;;7.10;4.60;;;;;;;;;;10375443;28;20026;-72
2023/05/22 22:09:06;;;;;;;8.20;5.32;;;;;;;;;;10381093;28;20034;-72
2023/05/22 22:14:06;;;;;;;8.52;5.07;;;;;;;;;;10380615;28;20552;-72
2023/05/22 22:19:06;;;;;;;10.27;5.97;;;;;;;;;;10379730;28;20312;-73
2023/05/22 22:24:06;;;;;;;12.52;6.53;;;;;;;;;;10346999;28;20064;-74
2023/05/22 22:29:07;;;;;;;10.87;6.33;;;;;;;;;;10340085;28;20034;-73
2023/05/22 22:34:07;;;;;;;10.90;6.70;;;;;;;;;;10339444;28;20554;-73
2023/05/22 22:39:08;;;;;;;10.70;6.32;;;;;;;;;;10339995;28;20042;-72
2023/05/22 22:44:08;;;;;;;11.38;6.85;;;;;;;;;;10339453;28;20483;-72
2023/05/22 22:49:09;;;;;;;9.35;6.53;;;;;;;;;;10339091;28;20034;-73
2023/05/22 22:54:09;;;;;;;11.90;7.75;;;;;;;;;;10338798;28;20037;-73
2023/05/22 22:59:09;;;;;;;18.77;9.95;;;;;;;;;;10338612;28;20287;-73
2023/05/22 23:04:11;;;;;;;20.10;10.43;;;;;;;;;;10338841;28;20326;-73
2023/05/22 23:09:11;;;;;;;22.58;12.00;;;;;;;;;;10340163;28;20049;-74
2023/05/22 23:14:12;;;;;;;21.33;12.20;;;;;;;;;;10337830;28;20030;-73
2023/05/22 23:19:12;;;;;;;24.97;12.93;;;;;;;;;;10337958;28;20395;-74
2023/05/22 23:24:13;;;;;;;27.65;13.98;;;;;;;;;;10371812;28;20299;-74
2023/05/22 23:29:13;;;;;;;23.20;12.93;;;;;;;;;;10358565;28;20081;-73
2023/05/22 23:34:13;;;;;;;28.87;15.07;;;;;;;;;;10337173;28;20301;-73
2023/05/22 23:39:13;;;;;;;30.15;15.02;;;;;;;;;;10336734;28;20061;-74
2023/05/22 23:44:14;;;;;;;28.63;14.48;;;;;;;;;;10337220;28;20026;-74
2023/05/22 23:49:14;;;;;;;20.60;12.60;;;;;;;;;;10336526;28;20042;-73
2023/05/22 23:54:15;;;;;;;25.17;13.55;;;;;;;;;;10336444;28;20057;-73
2023/05/22 23:59:16;;;;;;;19.55;12.35;;;;;;;;;;10336441;28;20026;-73
